Terminal Aerodrome Forecast
Issued by NWS

Current Version | Previous Version | Text Only | Print | Product List | Glossary On
Versions: 1 2 3 4 5 6 7 8 9 10 11 12 13 14 15 16
000
FTUS45 KABQ 262320
TAFLVS
TAF
KLVS 262320Z 2700/2724 22012KT P6SM VCSH SCT040 BKN080
     FM270100 20008KT P6SM SCT080 BKN120
     FM270400 19007KT P6SM BKN100
     FM271000 VRB06KT P6SM SCT100
     FM271600 22008KT P6SM SCT060 BKN100=

USA.gov is the U.S. government's official web portal to all federal, state and local government web resources and services.